Terminal Aerodrome Forecast
Issued by NWS

Home | Current Version | Previous Version | Text Only | Print | Product List | Glossary On
Versions: 1 2 3 4 5 6 7 8 9 10 11 12 13 14 15 16 17 18 19 20 21 22 23 24 25 26 27 28 29 30 31 32 33
000
FTUS43 KGRB 260500
TAFRHI
TAF
KRHI 260528Z 2606/2706 VRB03KT P6SM SCT100 BKN150
     FM260700 16003KT P6SM BKN080 OVC150
     FM261400 20007KT 1SM -SN SCT008 OVC012
     FM262100 16005KT 3SM -SN BR BKN007 OVC012
     FM270200 VRB03KT 4SM -SN BR OVC004=

USA.gov is the U.S. government's official web portal to all federal, state and local government web resources and services.